首页
METAR-TAF:

METAR-TAF

机场 :

新奥尔良路易斯阿姆斯特朗国际机场

新奥尔良, 路易斯安那州, 美国

纬度: 29-59-34N, 经度: 090-15-03W, 海拔: 1米

当前天气观测

该预报发布于27分钟前的08:22 UTC
风速6节,风向
温度 20°C
湿度 100%
气压 1008 hPa
能見度: 3.2公里
多云层高于500英尺
轻雾

METAR: KMSY 170822Z 17006KT 2SM BR BKN005 20/20 A2976 RMK AO2 T02000200 $

时间: 02:49 (08:49 UTC)

预报

该预报发布于3小时和17分钟前的05:32 UTC
预报有效从17日的 06点(UTC)到 18日的 12点(UTC)
风速8节,风向
能見度: 4.8公里
多云层高于600英尺
阴天层高于1100英尺
轻雾
从 17日的 0900点(UTC)
风速5节,风向
能見度: 1.6公里
散云层高于100英尺
阴天层高于2300英尺
轻雾
从 17日的 1300点(UTC)
风速5节,风向
能見度: 3.2公里
散云层高于300英尺
阴天层高于9000英尺
轻雾
从 17日的 1800点(UTC)
风速8节,风向南转西南
能見度: 10公里
散云层高于5000英尺
阴天层高于6000英尺
附近有阵雨
从 18日的 0600点(UTC)
风速5节,风向北转西北
能見度: 8.0公里
阴天层高于500英尺
轻雾
从 18日的 1000点(UTC)
风速8节,风向
能見度: 10公里
多云层高于1400英尺

TAF: KMSY 170532Z 1706/1812 17008KT 3SM BR BKN006 OVC011 FM170900 19005KT 1SM BR SCT001 OVC023 FM171300 19005KT 2SM BR SCT003 OVC090 FM171800 20008KT P6SM VCSH SCT050 OVC060 FM180600 34005KT 5SM BR OVC005 FM181000 01008KT P6SM BKN014

超过4000个机场的气象观测和天气预报(METAR&TAF报告)。

可查询的气象台以黄色和红色小点在地图上表示。

将鼠标移到小点上方,可查看气象台名称。

然后点击查看天气观测和预报。

如需切换地图:点击带黑十字的绿色按钮放大地图;点击带横线的绿色按钮缩小地图;或者点击绿色箭头查看邻近地区的地图。


METAR-TAF: